Time;durP1;ratioP1;P1;durP2;ratioP2;P2;SDS_P1;SDS_P2;PMS_P1;PMS_P2;Temp;Humidity;BMP_temperature;BMP_pressure;BME280_temperature;BME280_humidity;BME280_pressure;Samples;Min_cycle;Max_cycle;Signal;HPM_P1;HPM_P2
2022/02/02 00:04:54;;;;;;;1.00;0.47;;;;;;;;;;4977152;28;20070;-86
2022/02/02 00:09:54;;;;;;;0.85;0.40;;;;;;;;;;4982201;28;20038;-86
2022/02/02 00:12:35;;;;;;;0.73;0.30;;;;;;;;;;4983065;28;20514;-86
2022/02/02 00:15:26;;;;;;;0.57;0.22;;;;;;;;;;4985913;28;20022;-85
2022/02/02 00:18:10;;;;;;;0.68;0.20;;;;;;;;;;4988388;28;20058;-86
2022/02/02 00:20:53;;;;;;;1.40;0.60;;;;;;;;;;4990002;28;20042;-86
2022/02/02 00:23:23;;;;;;;1.23;0.60;;;;;;;;;;5019200;28;20041;-86
2022/02/02 00:25:55;;;;;;;1.88;0.70;;;;;;;;;;5010524;28;20034;-86
2022/02/02 00:28:29;;;;;;;2.60;1.00;;;;;;;;;;4988743;28;20045;-87
2022/02/02 00:31:00;;;;;;;2.10;0.90;;;;;;;;;;4987863;28;20034;-86
2022/02/02 00:33:30;;;;;;;2.17;0.93;;;;;;;;;;4992314;28;20077;-86
2022/02/02 00:36:03;;;;;;;1.67;0.90;;;;;;;;;;4990437;28;20030;-86
2022/02/02 00:38:29;;;;;;;1.58;0.77;;;;;;;;;;4994028;28;20035;-85
2022/02/02 00:40:55;;;;;;;1.27;0.70;;;;;;;;;;5016406;28;20033;-86
2022/02/02 00:43:21;;;;;;;0.80;0.60;;;;;;;;;;4995488;28;20092;-88
2022/02/02 00:45:49;;;;;;;0.93;0.60;;;;;;;;;;4991454;28;20030;-87
2022/02/02 00:48:16;;;;;;;0.77;0.73;;;;;;;;;;4989675;28;20087;-86
2022/02/02 00:50:43;;;;;;;1.65;0.77;;;;;;;;;;4992278;28;20023;-86
2022/02/02 00:53:10;;;;;;;1.08;0.77;;;;;;;;;;5020929;28;20040;-86
2022/02/02 00:55:37;;;;;;;1.00;0.50;;;;;;;;;;5002311;28;20077;-86
2022/02/02 00:58:03;;;;;;;1.20;0.60;;;;;;;;;;4990543;28;20062;-86
2022/02/02 01:00:30;;;;;;;2.47;0.95;;;;;;;;;;4992581;28;20101;-85
2022/02/02 01:02:56;;;;;;;1.63;0.82;;;;;;;;;;4994608;28;20018;-86
2022/02/02 01:05:22;;;;;;;2.45;0.90;;;;;;;;;;5006476;28;20062;-86
2022/02/02 01:13:24;;;;;;;2.28;0.80;;;;;;;;;;4995369;28;20138;-87
2022/02/02 01:16:33;;;;;;;1.20;0.60;;;;;;;;;;4995981;28;20042;-87
2022/02/02 01:18:48;;;;;;;0.75;0.55;;;;;;;;;;4989425;28;20030;-86
2022/02/02 01:21:29;;;;;;;0.73;0.40;;;;;;;;;;4993954;28;20074;-86
2022/02/02 01:29:25;;;;;;;0.43;0.40;;;;;;;;;;4994402;28;20046;-86
2022/02/02 01:31:51;;;;;;;0.80;0.47;;;;;;;;;;5013429;28;20030;-87
2022/02/02 01:34:17;;;;;;;1.00;0.43;;;;;;;;;;4991061;28;20026;-86
2022/02/02 01:36:43;;;;;;;1.60;0.70;;;;;;;;;;4992956;28;20034;-87
2022/02/02 01:39:13;;;;;;;1.17;0.50;;;;;;;;;;4993980;28;20034;-87
2022/02/02 01:41:41;;;;;;;1.58;0.80;;;;;;;;;;4995060;28;20058;-87
2022/02/02 01:44:21;;;;;;;3.90;1.00;;;;;;;;;;5023497;28;20061;-86
2022/02/02 01:46:49;;;;;;;1.63;0.98;;;;;;;;;;4994728;28;20273;-85
2022/02/02 01:57:46;;;;;;;1.40;0.82;;;;;;;;;;4991649;28;20110;-86
2022/02/02 02:00:10;;;;;;;1.23;0.77;;;;;;;;;;4992172;28;20063;-87
2022/02/02 02:02:36;;;;;;;1.05;0.70;;;;;;;;;;4993136;28;20039;-86
2022/02/02 02:05:02;;;;;;;1.20;0.60;;;;;;;;;;5014396;28;20034;-86
2022/02/02 02:07:28;;;;;;;1.30;0.77;;;;;;;;;;4992087;28;20180;-86
2022/02/02 02:09:57;;;;;;;0.80;0.50;;;;;;;;;;4990505;28;20069;-86
2022/02/02 02:12:24;;;;;;;1.27;0.40;;;;;;;;;;4990208;28;20042;-86
2022/02/02 02:17:16;;;;;;;0.50;0.30;;;;;;;;;;4992048;28;20026;-86
2022/02/02 02:19:49;;;;;;;0.77;0.30;;;;;;;;;;5013420;28;20046;-87
2022/02/02 02:22:18;;;;;;;0.60;0.10;;;;;;;;;;4990326;28;20026;-86
2022/02/02 02:24:45;;;;;;;0.30;0.10;;;;;;;;;;4992262;28;20029;-85
2022/02/02 02:27:14;;;;;;;0.32;0.00;;;;;;;;;;4991200;28;20083;-86
2022/02/02 02:29:59;;;;;;;0.40;0.08;;;;;;;;;;4992134;28;20030;-86
2022/02/02 02:55:46;;;;;;;0.45;0.00;;;;;;;;;;4991483;28;20042;-86
2022/02/02 02:56:50;;;;;;;0.00;0.00;;;;;;;;;;4977059;28;20073;-85
2022/02/02 02:59:30;;;;;;;0.00;0.00;;;;;;;;;;4992274;28;20027;-86
2022/02/02 03:02:48;;;;;;;0.08;0.00;;;;;;;;;;4993365;28;20019;-86
2022/02/02 03:54:26;;;;;;;0.00;0.00;;;;;;;;;;4988957;28;20408;-87
2022/02/02 04:07:47;;;;;;;0.00;0.00;;;;;;;;;;4970148;28;20034;-87
2022/02/02 04:10:13;;;;;;;0.10;0.00;;;;;;;;;;4992092;28;20034;-87
2022/02/02 04:16:31;;;;;;;0.00;0.00;;;;;;;;;;4995550;28;20058;-86
2022/02/02 04:56:08;;;;;;;0.00;0.00;;;;;;;;;;4981680;28;20043;-87
2022/02/02 04:59:00;;;;;;;0.00;0.00;;;;;;;;;;4987573;28;20034;-86
2022/02/02 05:07:24;;;;;;;0.28;0.00;;;;;;;;;;4991019;28;20038;-88
2022/02/02 05:09:38;;;;;;;0.00;0.00;;;;;;;;;;4984096;28;20124;-87
2022/02/02 05:17:58;;;;;;;0.10;0.10;;;;;;;;;;4989810;28;20571;-87
2022/02/02 05:52:05;;;;;;;0.00;0.00;;;;;;;;;;4992263;28;20475;-87
2022/02/02 05:54:31;;;;;;;0.00;0.00;;;;;;;;;;4994032;28;20113;-86
2022/02/02 05:56:59;;;;;;;0.30;0.10;;;;;;;;;;4991648;28;20054;-86
2022/02/02 05:59:27;;;;;;;0.00;0.00;;;;;;;;;;4993315;28;20026;-86
2022/02/02 06:01:55;;;;;;;0.00;0.00;;;;;;;;;;5013210;28;20703;-86
2022/02/02 06:04:25;;;;;;;0.17;0.00;;;;;;;;;;4997991;28;20122;-86
2022/02/02 06:06:53;;;;;;;0.00;0.00;;;;;;;;;;4994131;28;20517;-85
2022/02/02 06:09:20;;;;;;;0.00;0.00;;;;;;;;;;4991864;28;20030;-86
2022/02/02 06:11:50;;;;;;;0.00;0.00;;;;;;;;;;4990279;28;20137;-86
2022/02/02 06:14:19;;;;;;;0.00;0.00;;;;;;;;;;4992944;28;20041;-86
2022/02/02 06:16:45;;;;;;;0.00;0.00;;;;;;;;;;4996679;28;20129;-87
2022/02/02 06:19:11;;;;;;;0.00;0.00;;;;;;;;;;4983996;28;20027;-86
2022/02/02 06:21:37;;;;;;;0.52;0.10;;;;;;;;;;4982662;28;20030;-86
2022/02/02 06:24:17;;;;;;;0.00;0.00;;;;;;;;;;4985138;28;20034;-87
2022/02/02 06:26:47;;;;;;;0.00;0.00;;;;;;;;;;5003705;28;20034;-86
2022/02/02 06:29:14;;;;;;;0.73;0.10;;;;;;;;;;4985450;28;20027;-86
2022/02/02 06:31:40;;;;;;;0.00;0.00;;;;;;;;;;5005990;28;20073;-86
2022/02/02 06:34:08;;;;;;;0.13;0.00;;;;;;;;;;4989048;28;20125;-85
2022/02/02 06:36:38;;;;;;;0.00;0.00;;;;;;;;;;4986749;28;20026;-86
2022/02/02 06:39:09;;;;;;;0.85;0.00;;;;;;;;;;4986951;28;20038;-87
2022/02/02 06:41:35;;;;;;;0.13;0.10;;;;;;;;;;4982617;28;20034;-87
2022/02/02 06:44:03;;;;;;;0.10;0.10;;;;;;;;;;4995605;28;20127;-87
2022/02/02 06:46:32;;;;;;;0.00;0.00;;;;;;;;;;4991930;28;20034;-87
2022/02/02 06:48:58;;;;;;;0.00;0.00;;;;;;;;;;5014661;28;20514;-87
2022/02/02 06:51:38;;;;;;;0.50;0.00;;;;;;;;;;4984569;28;20030;-87
2022/02/02 06:54:10;;;;;;;0.10;0.10;;;;;;;;;;4983772;28;20036;-86
2022/02/02 06:56:54;;;;;;;0.75;0.00;;;;;;;;;;4987039;28;20038;-86
2022/02/02 07:10:24;;;;;;;0.03;0.03;;;;;;;;;;4968900;28;20042;-85
2022/02/02 07:29:01;;;;;;;0.40;0.30;;;;;;;;;;4992105;28;20125;-85
2022/02/02 07:34:21;;;;;;;0.22;0.22;;;;;;;;;;4986998;28;20026;-86
2022/02/02 07:36:50;;;;;;;0.32;0.30;;;;;;;;;;4970833;28;20400;-86
2022/02/02 07:39:17;;;;;;;1.38;0.22;;;;;;;;;;4992389;28;20076;-86
2022/02/02 07:41:48;;;;;;;0.45;0.30;;;;;;;;;;4991765;28;20030;-85
2022/02/02 07:44:19;;;;;;;0.90;0.13;;;;;;;;;;4992058;28;20446;-85
2022/02/02 07:46:46;;;;;;;0.20;0.20;;;;;;;;;;5021022;28;20038;-86
2022/02/02 07:49:14;;;;;;;0.82;0.40;;;;;;;;;;4988448;28;20093;-84
2022/02/02 07:51:42;;;;;;;;;;;;;;;;;;4991172;28;20031;-86
2022/02/02 07:54:15;;;;;;;0.85;0.32;;;;;;;;;;5007975;28;19949;-85
2022/02/02 07:56:43;;;;;;;0.90;0.43;;;;;;;;;;4974289;28;20084;-85
2022/02/02 08:01:51;;;;;;;2.00;1.40;;;;;;;;;;4991954;28;20054;-85
2022/02/02 08:04:19;;;;;;;;;;;;;;;;;;4991638;28;20046;-86
2022/02/02 08:06:51;;;;;;;3.08;0.60;;;;;;;;;;5009611;28;20410;-85
2022/02/02 08:09:29;;;;;;;1.17;0.85;;;;;;;;;;4990384;28;20023;-86
2022/02/02 08:11:56;;;;;;;;;;;;;;;;;;4990092;28;20039;-85
2022/02/02 08:14:23;;;;;;;0.60;0.30;;;;;;;;;;5021447;28;19912;-85
2022/02/02 08:16:49;;;;;;;0.88;0.30;;;;;;;;;;5009644;28;20018;-86
2022/02/02 08:19:17;;;;;;;1.52;0.70;;;;;;;;;;4991178;28;20030;-85
2022/02/02 08:21:44;;;;;;;0.70;0.40;;;;;;;;;;4988239;28;20026;-86
2022/02/02 08:24:11;;;;;;;0.95;0.40;;;;;;;;;;4989875;28;20425;-84
2022/02/02 08:26:37;;;;;;;3.35;0.65;;;;;;;;;;5020836;28;20584;-85
2022/02/02 08:29:03;;;;;;;1.13;0.50;;;;;;;;;;4991852;28;20026;-84
2022/02/02 08:31:29;;;;;;;0.82;0.40;;;;;;;;;;4987817;28;20030;-85
2022/02/02 08:34:01;;;;;;;2.08;0.40;;;;;;;;;;4989265;28;20084;-85
2022/02/02 08:36:28;;;;;;;0.75;0.50;;;;;;;;;;5006349;28;20040;-85
2022/02/02 08:39:03;;;;;;;1.40;0.60;;;;;;;;;;4989279;28;20030;-85
2022/02/02 08:41:34;;;;;;;0.43;0.43;;;;;;;;;;4990105;28;20161;-85
2022/02/02 08:44:05;;;;;;;0.75;0.20;;;;;;;;;;5007731;28;20033;-85
2022/02/02 08:46:35;;;;;;;1.15;0.60;;;;;;;;;;5016445;28;20391;-85
2022/02/02 08:49:04;;;;;;;1.20;0.32;;;;;;;;;;4982743;28;20650;-87
2022/02/02 08:51:36;;;;;;;1.08;0.22;;;;;;;;;;4987435;28;20033;-85
2022/02/02 08:59:27;;;;;;;0.22;0.20;;;;;;;;;;4991334;28;20121;-86
2022/02/02 09:01:53;;;;;;;0.20;0.10;;;;;;;;;;4993681;28;20069;-86
2022/02/02 09:07:05;;;;;;;0.75;0.20;;;;;;;;;;4994440;28;20128;-86
2022/02/02 09:10:18;;;;;;;0.98;0.30;;;;;;;;;;4994652;28;20085;-84
2022/02/02 09:23:29;;;;;;;0.10;0.10;;;;;;;;;;4981019;28;20035;-87
2022/02/02 09:33:54;;;;;;;0.00;0.00;;;;;;;;;;4992750;28;20112;-86
2022/02/02 09:36:23;;;;;;;0.20;0.13;;;;;;;;;;4992120;28;20018;-86
2022/02/02 09:38:51;;;;;;;0.08;0.00;;;;;;;;;;4993661;28;20045;-86
2022/02/02 09:43:48;;;;;;;0.43;0.10;;;;;;;;;;4994750;28;20053;-86
2022/02/02 09:46:18;;;;;;;0.00;0.00;;;;;;;;;;4990477;28;20097;-86
2022/02/02 09:48:50;;;;;;;1.15;0.17;;;;;;;;;;4992339;28;20037;-87
2022/02/02 09:51:24;;;;;;;0.65;0.20;;;;;;;;;;4989893;28;20022;-86
2022/02/02 09:54:06;;;;;;;0.20;0.20;;;;;;;;;;4990253;28;20033;-86
2022/02/02 09:56:48;;;;;;;0.38;0.13;;;;;;;;;;4992844;28;20039;-86
2022/02/02 10:05:00;;;;;;;0.10;0.10;;;;;;;;;;4993539;28;20495;-85
2022/02/02 10:07:50;;;;;;;0.03;0.03;;;;;;;;;;4990166;28;20038;-85
2022/02/02 10:15:46;;;;;;;1.00;0.30;;;;;;;;;;4992861;28;20027;-87
2022/02/02 10:18:18;;;;;;;0.10;0.10;;;;;;;;;;4993461;28;20027;-87
2022/02/02 10:20:45;;;;;;;0.20;0.20;;;;;;;;;;5009173;28;20626;-88
2022/02/02 10:23:14;;;;;;;0.47;0.17;;;;;;;;;;4993854;28;20475;-88
2022/02/02 10:25:43;;;;;;;0.10;0.10;;;;;;;;;;5011405;28;20372;-88
2022/02/02 10:28:14;;;;;;;0.60;0.20;;;;;;;;;;4993055;28;20085;-87
2022/02/02 10:30:43;;;;;;;0.10;0.10;;;;;;;;;;4992193;28;20229;-87
2022/02/02 10:33:13;;;;;;;0.03;0.00;;;;;;;;;;4988362;28;20537;-87
2022/02/02 10:35:44;;;;;;;0.60;0.15;;;;;;;;;;4988326;28;20027;-85
2022/02/02 10:38:13;;;;;;;0.20;0.10;;;;;;;;;;4977450;28;20054;-86
2022/02/02 10:41:02;;;;;;;0.35;0.08;;;;;;;;;;5005159;28;20022;-87
2022/02/02 10:43:33;;;;;;;0.60;0.10;;;;;;;;;;4990895;28;20022;-88
2022/02/02 10:46:10;;;;;;;0.25;0.20;;;;;;;;;;4984534;28;20096;-85
2022/02/02 10:49:03;;;;;;;0.60;0.17;;;;;;;;;;4989898;28;20018;-88
2022/02/02 10:51:38;;;;;;;0.10;0.10;;;;;;;;;;4990183;28;20558;-87
2022/02/02 10:54:14;;;;;;;0.00;0.00;;;;;;;;;;4991655;28;20453;-86
2022/02/02 10:59:27;;;;;;;1.15;0.70;;;;;;;;;;4989531;28;20456;-87
2022/02/02 11:07:35;;;;;;;0.05;0.05;;;;;;;;;;4985482;28;20053;-87
2022/02/02 11:10:02;;;;;;;0.20;0.10;;;;;;;;;;4989346;28;20114;-86
2022/02/02 11:12:32;;;;;;;0.10;0.10;;;;;;;;;;4983425;28;20082;-86
2022/02/02 11:15:17;;;;;;;0.00;0.00;;;;;;;;;;4989630;28;20053;-86
2022/02/02 11:17:47;;;;;;;0.00;0.00;;;;;;;;;;4983675;28;20546;-86
2022/02/02 11:20:13;;;;;;;0.00;0.00;;;;;;;;;;4983707;28;20109;-86
2022/02/02 11:22:47;;;;;;;0.00;0.00;;;;;;;;;;4988753;28;20518;-86
2022/02/02 11:25:13;;;;;;;0.17;0.10;;;;;;;;;;4983296;28;20420;-86
2022/02/02 11:27:40;;;;;;;0.88;0.10;;;;;;;;;;4986799;28;20045;-86
2022/02/02 11:30:08;;;;;;;0.00;0.00;;;;;;;;;;5000445;28;20046;-85
2022/02/02 11:32:45;;;;;;;0.10;0.10;;;;;;;;;;4985018;28;20019;-86
2022/02/02 11:35:52;;;;;;;0.30;0.20;;;;;;;;;;5001680;28;20030;-86
2022/02/02 11:38:21;;;;;;;0.40;0.10;;;;;;;;;;4983244;28;20053;-86
2022/02/02 11:49:46;;;;;;;0.03;0.00;;;;;;;;;;4991662;28;20061;-87
2022/02/02 11:52:31;;;;;;;0.00;0.00;;;;;;;;;;4982463;28;20498;-87
2022/02/02 11:54:56;;;;;;;0.00;0.00;;;;;;;;;;4983767;28;20483;-86
2022/02/02 11:57:33;;;;;;;0.00;0.00;;;;;;;;;;4983558;28;20114;-87
2022/02/02 12:00:12;;;;;;;0.08;0.08;;;;;;;;;;4983798;28;20045;-88
2022/02/02 12:07:58;;;;;;;0.20;0.10;;;;;;;;;;4992801;28;20097;-87
2022/02/02 12:11:29;;;;;;;0.00;0.00;;;;;;;;;;4988319;28;20258;-86
2022/02/02 13:00:12;;;;;;;0.00;0.00;;;;;;;;;;4989817;28;20129;-86
2022/02/02 13:02:39;;;;;;;0.20;0.20;;;;;;;;;;4986938;28;20464;-86
2022/02/02 13:05:06;;;;;;;0.00;0.00;;;;;;;;;;4991018;28;20591;-85
2022/02/02 13:07:32;;;;;;;0.00;0.00;;;;;;;;;;5004108;28;20057;-87
2022/02/02 13:09:59;;;;;;;0.28;0.00;;;;;;;;;;5009317;28;20494;-88
2022/02/02 13:12:28;;;;;;;0.00;0.00;;;;;;;;;;5006243;28;20149;-87
2022/02/02 13:18:15;;;;;;;0.00;0.00;;;;;;;;;;4961105;28;20459;-88
2022/02/02 13:20:52;;;;;;;0.00;0.00;;;;;;;;;;4971901;28;20250;-87
2022/02/02 13:26:24;;;;;;;0.00;0.00;;;;;;;;;;4990493;28;20466;-87
2022/02/02 13:34:21;;;;;;;0.00;0.00;;;;;;;;;;4986574;28;20042;-86
2022/02/02 13:56:32;;;;;;;0.00;0.00;;;;;;;;;;4993315;28;20480;-85
2022/02/02 14:31:08;;;;;;;0.30;0.00;;;;;;;;;;4990815;28;19929;-87
2022/02/02 14:33:35;;;;;;;0.00;0.00;;;;;;;;;;5007547;28;20121;-87
2022/02/02 14:36:04;;;;;;;0.05;0.05;;;;;;;;;;5007934;28;20476;-87
2022/02/02 14:38:48;;;;;;;0.63;0.10;;;;;;;;;;5008485;28;20065;-87
2022/02/02 14:44:12;;;;;;;0.00;0.00;;;;;;;;;;4993832;28;20140;-87
2022/02/02 14:46:48;;;;;;;0.00;0.00;;;;;;;;;;5006438;28;20097;-88
2022/02/02 14:49:24;;;;;;;0.45;0.00;;;;;;;;;;5008705;28;20360;-87
2022/02/02 14:54:36;;;;;;;0.00;0.00;;;;;;;;;;4991666;28;20483;-87
2022/02/02 15:32:01;;;;;;;0.00;0.00;;;;;;;;;;4997727;28;19964;-85
2022/02/02 15:34:34;;;;;;;0.00;0.00;;;;;;;;;;5013729;28;20483;-85
2022/02/02 15:37:22;;;;;;;0.00;0.00;;;;;;;;;;4992160;28;20039;-85
2022/02/02 15:39:59;;;;;;;0.03;0.03;;;;;;;;;;4997616;28;20026;-85
2022/02/02 15:58:55;;;;;;;0.10;0.10;;;;;;;;;;4965719;28;20030;-85
2022/02/02 16:03:52;;;;;;;0.10;0.10;;;;;;;;;;4988462;28;20476;-86
2022/02/02 16:06:21;;;;;;;0.10;0.10;;;;;;;;;;4999719;28;20113;-86
2022/02/02 16:08:56;;;;;;;0.00;0.00;;;;;;;;;;4989702;28;20097;-85
2022/02/02 16:11:28;;;;;;;0.10;0.10;;;;;;;;;;5021059;28;20022;-85
2022/02/02 16:14:02;;;;;;;0.10;0.10;;;;;;;;;;4991465;28;20097;-85
2022/02/02 16:19:14;;;;;;;0.10;0.10;;;;;;;;;;4989789;28;20122;-86
2022/02/02 16:38:15;;;;;;;0.00;0.00;;;;;;;;;;4977956;28;20042;-87
2022/02/02 16:40:43;;;;;;;0.35;0.10;;;;;;;;;;5010489;28;20026;-86
2022/02/02 16:43:13;;;;;;;;;;;;;;;;;;4990589;28;20027;-86
2022/02/02 16:45:39;;;;;;;0.17;0.17;;;;;;;;;;5008935;28;20378;-86
2022/02/02 16:48:06;;;;;;;0.10;0.10;;;;;;;;;;4988605;28;20023;-86
2022/02/02 16:50:36;;;;;;;0.55;0.10;;;;;;;;;;4990584;28;20037;-86
2022/02/02 16:53:26;;;;;;;0.00;0.00;;;;;;;;;;5011814;28;20026;-86
2022/02/02 16:56:18;;;;;;;0.63;0.10;;;;;;;;;;4989862;28;20050;-86
2022/02/02 17:34:22;;;;;;;0.57;0.30;;;;;;;;;;4993791;28;20219;-88
2022/02/02 17:37:08;;;;;;;0.10;0.10;;;;;;;;;;4994145;28;20034;-86
2022/02/02 17:39:45;;;;;;;0.40;0.10;;;;;;;;;;4993279;28;20280;-87
2022/02/02 17:44:57;;;;;;;1.88;0.10;;;;;;;;;;4993575;28;20030;-88
2022/02/02 18:12:29;;;;;;;0.17;0.10;;;;;;;;;;4989095;28;20081;-85
2022/02/02 18:20:32;;;;;;;0.17;0.10;;;;;;;;;;4997718;28;20093;-86
2022/02/02 18:23:19;;;;;;;0.20;0.20;;;;;;;;;;5003792;28;20034;-86
2022/02/02 18:25:51;;;;;;;0.00;0.00;;;;;;;;;;4991018;28;20100;-86
2022/02/02 18:28:29;;;;;;;0.10;0.10;;;;;;;;;;5007479;28;20113;-86
2022/02/02 18:36:42;;;;;;;0.30;0.20;;;;;;;;;;4991535;28;20440;-85
2022/02/02 18:53:42;;;;;;;0.10;0.10;;;;;;;;;;4948141;29;20035;-86
2022/02/02 19:00:58;;;;;;;0.20;0.10;;;;;;;;;;4983227;28;20454;-86
2022/02/02 19:07:05;;;;;;;0.20;0.10;;;;;;;;;;4985617;28;20069;-86
2022/02/02 19:56:16;;;;;;;0.10;0.10;;;;;;;;;;4981681;28;20422;-86
2022/02/02 20:04:02;;;;;;;0.08;0.00;;;;;;;;;;4979953;28;20053;-87
2022/02/02 20:11:27;;;;;;;0.28;0.00;;;;;;;;;;4983668;28;20041;-87
2022/02/02 20:13:53;;;;;;;0.08;0.08;;;;;;;;;;5010462;28;20042;-86
2022/02/02 20:16:19;;;;;;;0.00;0.00;;;;;;;;;;4991414;28;20428;-86
2022/02/02 20:18:47;;;;;;;0.10;0.10;;;;;;;;;;4985479;28;20122;-85
2022/02/02 20:21:17;;;;;;;0.28;0.20;;;;;;;;;;4985271;28;20036;-85
2022/02/02 20:23:46;;;;;;;0.10;0.10;;;;;;;;;;4996483;28;20022;-83
2022/02/02 20:26:16;;;;;;;0.10;0.10;;;;;;;;;;4989380;28;20026;-87
2022/02/02 20:28:42;;;;;;;0.20;0.10;;;;;;;;;;5003386;28;20022;-87
2022/02/02 20:31:08;;;;;;;0.35;0.08;;;;;;;;;;4986366;28;20467;-88
2022/02/02 20:33:34;;;;;;;0.10;0.10;;;;;;;;;;5006716;28;20033;-87
2022/02/02 20:36:00;;;;;;;0.05;0.00;;;;;;;;;;5002687;28;20084;-87
2022/02/02 20:38:27;;;;;;;0.20;0.10;;;;;;;;;;4982733;28;20539;-86
2022/02/02 20:40:53;;;;;;;0.35;0.10;;;;;;;;;;5001670;28;20019;-87
2022/02/02 20:43:30;;;;;;;0.22;0.20;;;;;;;;;;4985353;28;20038;-86
2022/02/02 21:10:23;;;;;;;4.22;1.65;;;;;;;;;;4991579;28;20065;-87
2022/02/02 21:15:36;;;;;;;0.52;0.30;;;;;;;;;;4992794;28;20392;-87
2022/02/02 21:18:22;;;;;;;1.23;0.55;;;;;;;;;;4993296;28;20038;-87
2022/02/02 21:21:24;;;;;;;0.68;0.50;;;;;;;;;;5006102;28;20031;-87
2022/02/02 21:26:22;;;;;;;0.63;0.32;;;;;;;;;;4995484;28;20097;-87
2022/02/02 21:28:48;;;;;;;0.85;0.50;;;;;;;;;;4994427;28;20081;-87
2022/02/02 21:31:14;;;;;;;0.77;0.40;;;;;;;;;;4995939;28;20127;-87
2022/02/02 21:33:40;;;;;;;0.45;0.13;;;;;;;;;;4993250;28;20027;-87
2022/02/02 21:36:12;;;;;;;0.13;0.10;;;;;;;;;;4997614;28;20030;-88
2022/02/02 21:39:03;;;;;;;0.75;0.30;;;;;;;;;;5008363;28;20092;-87
2022/02/02 21:41:34;;;;;;;0.20;0.20;;;;;;;;;;5025918;28;20185;-87
2022/02/02 21:44:00;;;;;;;0.00;0.00;;;;;;;;;;5020807;28;20030;-87
2022/02/02 21:46:26;;;;;;;0.47;0.30;;;;;;;;;;4996194;28;20065;-87
2022/02/02 21:48:53;;;;;;;0.60;0.40;;;;;;;;;;4991595;28;20026;-86
2022/02/02 21:51:26;;;;;;;0.10;0.10;;;;;;;;;;4992446;28;20030;-86
2022/02/02 21:53:52;;;;;;;0.00;0.00;;;;;;;;;;4993909;28;20029;-86
2022/02/02 21:56:20;;;;;;;0.00;0.00;;;;;;;;;;5007143;28;20030;-87
2022/02/02 21:58:46;;;;;;;0.00;0.00;;;;;;;;;;4993836;28;20018;-87
2022/02/02 22:01:12;;;;;;;0.20;0.10;;;;;;;;;;4991209;28;20420;-87
2022/02/02 22:03:38;;;;;;;0.10;0.03;;;;;;;;;;4990619;28;20034;-87
2022/02/02 22:06:04;;;;;;;0.00;0.00;;;;;;;;;;4992803;28;20049;-86
2022/02/02 22:08:30;;;;;;;0.00;0.00;;;;;;;;;;4994688;28;20113;-87
2022/02/02 22:10:56;;;;;;;0.00;0.00;;;;;;;;;;5009675;28;20037;-86
2022/02/02 22:14:15;;;;;;;0.20;0.20;;;;;;;;;;5107680;27;20441;-66
2022/02/02 22:16:42;;;;;;;0.00;0.00;;;;;;;;;;5104172;28;20027;-67
2022/02/02 22:19:08;;;;;;;0.00;0.00;;;;;;;;;;5106660;28;20036;-67
2022/02/02 22:21:35;;;;;;;0.17;0.10;;;;;;;;;;5106254;28;20097;-67
2022/02/02 22:24:02;;;;;;;0.17;0.17;;;;;;;;;;5104880;28;20036;-66
2022/02/02 22:26:28;;;;;;;0.22;0.20;;;;;;;;;;5105650;28;20415;-66
2022/02/02 22:28:55;;;;;;;0.10;0.00;;;;;;;;;;5107134;28;20032;-66
2022/02/02 22:31:21;;;;;;;0.00;0.00;;;;;;;;;;5104522;28;20062;-66
2022/02/02 22:33:47;;;;;;;0.30;0.17;;;;;;;;;;5106138;28;20040;-66
2022/02/02 22:36:13;;;;;;;0.00;0.00;;;;;;;;;;5106276;28;20069;-66
2022/02/02 22:38:42;;;;;;;0.03;0.00;;;;;;;;;;5104390;28;20086;-66
2022/02/02 22:41:10;;;;;;;0.00;0.00;;;;;;;;;;5103034;28;20032;-66
2022/02/02 22:43:43;;;;;;;0.00;0.00;;;;;;;;;;5105589;28;20046;-66
2022/02/02 22:46:09;;;;;;;0.00;0.00;;;;;;;;;;5103280;28;20036;-66
2022/02/02 22:48:38;;;;;;;0.00;0.00;;;;;;;;;;5102933;28;20039;-66
2022/02/02 22:51:04;;;;;;;0.10;0.10;;;;;;;;;;5104169;28;20085;-66
2022/02/02 22:53:30;;;;;;;0.00;0.00;;;;;;;;;;5105121;28;20040;-66
2022/02/02 22:55:56;;;;;;;0.00;0.00;;;;;;;;;;5105586;28;20099;-66
2022/02/02 22:58:22;;;;;;;0.32;0.00;;;;;;;;;;5103914;28;20544;-66
2022/02/02 23:00:49;;;;;;;0.65;0.10;;;;;;;;;;5103884;28;20052;-67
2022/02/02 23:03:19;;;;;;;0.20;0.20;;;;;;;;;;5105119;28;20020;-67
2022/02/02 23:05:48;;;;;;;1.15;0.30;;;;;;;;;;5103336;28;20016;-67
2022/02/02 23:08:17;;;;;;;0.28;0.20;;;;;;;;;;5106632;28;20024;-67
2022/02/02 23:10:43;;;;;;;1.45;0.25;;;;;;;;;;5104407;28;20024;-67
2022/02/02 23:13:10;;;;;;;1.02;0.30;;;;;;;;;;5102954;28;20047;-67
2022/02/02 23:18:24;;;;;;;0.50;0.30;;;;;;;;;;5101682;28;20039;-67
2022/02/02 23:20:55;;;;;;;0.20;0.20;;;;;;;;;;5101460;28;20016;-67
2022/02/02 23:23:22;;;;;;;1.25;0.32;;;;;;;;;;5104006;28;20031;-66
2022/02/02 23:25:49;;;;;;;0.57;0.30;;;;;;;;;;5088846;28;20028;-66
2022/02/02 23:28:21;;;;;;;0.82;0.30;;;;;;;;;;5088396;28;20119;-67
2022/02/02 23:30:47;;;;;;;0.77;0.38;;;;;;;;;;5088096;28;20020;-67
2022/02/02 23:33:13;;;;;;;1.15;0.80;;;;;;;;;;5089125;28;20032;-67
2022/02/02 23:35:40;;;;;;;1.70;0.93;;;;;;;;;;5089805;28;20055;-66
2022/02/02 23:38:07;;;;;;;1.30;0.90;;;;;;;;;;5092907;28;20107;-67
2022/02/02 23:40:59;;;;;;;1.50;0.77;;;;;;;;;;5089374;28;20020;-67
2022/02/02 23:43:23;;;;;;;1.33;0.77;;;;;;;;;;5088972;28;20502;-67
2022/02/02 23:45:56;;;;;;;0.80;0.55;;;;;;;;;;5087316;28;20035;-67
2022/02/02 23:48:23;;;;;;;2.28;0.80;;;;;;;;;;5088840;28;20107;-67
2022/02/02 23:50:52;;;;;;;1.20;0.70;;;;;;;;;;5089228;28;20025;-67
2022/02/02 23:53:19;;;;;;;1.63;0.80;;;;;;;;;;5091647;28;20108;-66
2022/02/02 23:55:50;;;;;;;0.93;0.60;;;;;;;;;;5091106;28;20027;-66
2022/02/02 23:58:28;;;;;;;1.20;0.70;;;;;;;;;;5097403;28;20030;-66
